sensor_id;sensor_type;location;lat;lon;timestamp;pressure;altitude;pressure_sealevel;temperature;humidity
39157;BME280;24889;42.424;25.604;2022-07-19T00:02:26;98855.44;;;20.36;65.51
39157;BME280;24889;42.424;25.604;2022-07-19T00:04:51;98854.41;;;20.15;66.54
39157;BME280;24889;42.424;25.604;2022-07-19T00:07:16;98855.13;;;20.05;67.05
39157;BME280;24889;42.424;25.604;2022-07-19T00:09:42;98848.31;;;20.03;67.70
39157;BME280;24889;42.424;25.604;2022-07-19T00:12:07;98856.09;;;19.94;68.38
39157;BME280;24889;42.424;25.604;2022-07-19T00:14:32;98853.72;;;19.76;69.14
39157;BME280;24889;42.424;25.604;2022-07-19T00:16:58;98850.31;;;19.63;69.73
39157;BME280;24889;42.424;25.604;2022-07-19T00:19:23;98842.63;;;19.60;69.60
39157;BME280;24889;42.424;25.604;2022-07-19T00:21:48;98844.53;;;19.60;69.67
39157;BME280;24889;42.424;25.604;2022-07-19T00:24:14;98855.28;;;19.72;69.51
39157;BME280;24889;42.424;25.604;2022-07-19T00:26:39;98839.00;;;19.72;69.69
39157;BME280;24889;42.424;25.604;2022-07-19T00:29:04;98834.94;;;19.52;70.40
39157;BME280;24889;42.424;25.604;2022-07-19T00:31:30;98838.25;;;19.37;71.22
39157;BME280;24889;42.424;25.604;2022-07-19T00:33:55;98834.84;;;19.47;70.42
39157;BME280;24889;42.424;25.604;2022-07-19T00:36:21;98833.38;;;19.17;72.40
39157;BME280;24889;42.424;25.604;2022-07-19T00:38:46;98829.59;;;19.18;72.09
39157;BME280;24889;42.424;25.604;2022-07-19T00:41:12;98824.72;;;19.20;72.05
39157;BME280;24889;42.424;25.604;2022-07-19T00:43:41;98820.16;;;19.04;73.44
39157;BME280;24889;42.424;25.604;2022-07-19T00:46:16;98826.16;;;19.06;73.38
39157;BME280;24889;42.424;25.604;2022-07-19T00:48:41;98825.50;;;18.99;74.03
39157;BME280;24889;42.424;25.604;2022-07-19T00:51:10;98824.00;;;19.08;73.71
39157;BME280;24889;42.424;25.604;2022-07-19T00:53:37;98824.28;;;19.07;74.22
39157;BME280;24889;42.424;25.604;2022-07-19T00:56:03;98826.81;;;19.13;73.40
39157;BME280;24889;42.424;25.604;2022-07-19T00:58:29;98824.00;;;19.08;75.13
39157;BME280;24889;42.424;25.604;2022-07-19T01:00:55;98825.25;;;19.01;74.61
39157;BME280;24889;42.424;25.604;2022-07-19T01:03:20;98824.59;;;18.93;74.44
39157;BME280;24889;42.424;25.604;2022-07-19T01:05:46;98796.00;;;18.86;74.68
39157;BME280;24889;42.424;25.604;2022-07-19T01:08:12;98817.47;;;18.87;74.78
39157;BME280;24889;42.424;25.604;2022-07-19T01:10:37;98813.63;;;18.83;75.76
39157;BME280;24889;42.424;25.604;2022-07-19T01:13:02;98810.31;;;18.98;74.04
39157;BME280;24889;42.424;25.604;2022-07-19T01:15:28;98807.72;;;19.25;72.94
39157;BME280;24889;42.424;25.604;2022-07-19T01:17:53;98806.16;;;19.51;72.00
39157;BME280;24889;42.424;25.604;2022-07-19T01:20:20;98793.41;;;19.74;70.88
39157;BME280;24889;42.424;25.604;2022-07-19T01:22:45;98795.91;;;19.80;68.85
39157;BME280;24889;42.424;25.604;2022-07-19T01:25:11;98796.16;;;19.57;69.08
39157;BME280;24889;42.424;25.604;2022-07-19T01:27:40;98790.41;;;19.31;68.85
39157;BME280;24889;42.424;25.604;2022-07-19T01:30:10;98796.47;;;19.38;70.24
39157;BME280;24889;42.424;25.604;2022-07-19T01:32:35;98798.94;;;19.40;68.66
39157;BME280;24889;42.424;25.604;2022-07-19T01:35:00;98788.84;;;19.35;69.03
39157;BME280;24889;42.424;25.604;2022-07-19T01:37:26;98788.91;;;19.40;69.37
39157;BME280;24889;42.424;25.604;2022-07-19T01:39:51;98785.94;;;19.42;67.80
39157;BME280;24889;42.424;25.604;2022-07-19T01:42:16;98780.25;;;19.22;68.99
39157;BME280;24889;42.424;25.604;2022-07-19T01:44:42;98789.22;;;18.83;70.53
39157;BME280;24889;42.424;25.604;2022-07-19T01:47:07;98785.16;;;18.86;70.81
39157;BME280;24889;42.424;25.604;2022-07-19T01:49:32;98782.88;;;18.78;70.98
39157;BME280;24889;42.424;25.604;2022-07-19T01:51:57;98790.47;;;18.76;71.14
39157;BME280;24889;42.424;25.604;2022-07-19T01:54:23;98784.34;;;18.85;70.79
39157;BME280;24889;42.424;25.604;2022-07-19T01:56:48;98786.50;;;18.83;71.08
39157;BME280;24889;42.424;25.604;2022-07-19T01:59:13;98781.47;;;18.92;70.44
39157;BME280;24889;42.424;25.604;2022-07-19T02:01:39;98782.94;;;19.00;69.93
39157;BME280;24889;42.424;25.604;2022-07-19T02:04:04;98777.91;;;19.08;69.31
39157;BME280;24889;42.424;25.604;2022-07-19T02:06:29;98788.00;;;19.13;69.27
39157;BME280;24889;42.424;25.604;2022-07-19T02:08:55;98775.81;;;19.15;68.68
39157;BME280;24889;42.424;25.604;2022-07-19T02:11:20;98773.38;;;19.14;69.04
39157;BME280;24889;42.424;25.604;2022-07-19T02:14:01;98777.34;;;19.06;69.21
39157;BME280;24889;42.424;25.604;2022-07-19T02:16:27;98769.69;;;19.03;69.23
39157;BME280;24889;42.424;25.604;2022-07-19T02:18:52;98773.72;;;19.01;68.77
39157;BME280;24889;42.424;25.604;2022-07-19T02:21:18;98764.00;;;19.05;69.17
39157;BME280;24889;42.424;25.604;2022-07-19T02:23:43;98763.03;;;18.94;68.46
39157;BME280;24889;42.424;25.604;2022-07-19T02:26:09;98774.66;;;18.89;68.60
39157;BME280;24889;42.424;25.604;2022-07-19T02:28:34;98769.06;;;18.96;68.43
39157;BME280;24889;42.424;25.604;2022-07-19T02:30:59;98758.63;;;18.88;67.50
39157;BME280;24889;42.424;25.604;2022-07-19T02:33:25;98763.75;;;18.84;67.88
39157;BME280;24889;42.424;25.604;2022-07-19T02:35:50;98766.28;;;18.91;68.32
39157;BME280;24889;42.424;25.604;2022-07-19T02:38:15;98765.84;;;18.99;67.12
39157;BME280;24889;42.424;25.604;2022-07-19T02:40:40;98762.56;;;18.97;66.62
39157;BME280;24889;42.424;25.604;2022-07-19T02:43:06;98766.59;;;19.16;66.37
39157;BME280;24889;42.424;25.604;2022-07-19T02:45:31;98761.63;;;19.08;66.61
39157;BME280;24889;42.424;25.604;2022-07-19T02:47:56;98761.72;;;18.96;66.46
39157;BME280;24889;42.424;25.604;2022-07-19T02:50:22;98772.84;;;18.95;67.00
39157;BME280;24889;42.424;25.604;2022-07-19T02:52:47;98763.56;;;18.91;66.80
39157;BME280;24889;42.424;25.604;2022-07-19T02:55:12;98764.44;;;18.96;66.51
39157;BME280;24889;42.424;25.604;2022-07-19T02:57:38;98768.47;;;18.94;66.54
39157;BME280;24889;42.424;25.604;2022-07-19T03:00:05;98769.97;;;19.02;66.51
39157;BME280;24889;42.424;25.604;2022-07-19T03:02:32;98765.84;;;18.99;66.29
39157;BME280;24889;42.424;25.604;2022-07-19T03:04:57;98767.16;;;18.96;65.75
39157;BME280;24889;42.424;25.604;2022-07-19T03:07:22;98768.72;;;18.92;66.37
39157;BME280;24889;42.424;25.604;2022-07-19T03:09:48;98771.38;;;18.87;66.80
39157;BME280;24889;42.424;25.604;2022-07-19T03:12:13;98769.06;;;18.96;66.11
39157;BME280;24889;42.424;25.604;2022-07-19T03:14:39;98760.34;;;18.94;66.65
39157;BME280;24889;42.424;25.604;2022-07-19T03:17:04;98760.09;;;18.95;66.89
39157;BME280;24889;42.424;25.604;2022-07-19T03:19:29;98768.25;;;18.95;67.56
39157;BME280;24889;42.424;25.604;2022-07-19T03:21:55;98763.47;;;19.03;67.01
39157;BME280;24889;42.424;25.604;2022-07-19T03:24:20;98767.53;;;19.05;66.63
39157;BME280;24889;42.424;25.604;2022-07-19T03:26:45;98766.28;;;19.13;66.41
39157;BME280;24889;42.424;25.604;2022-07-19T03:29:11;98765.47;;;19.12;66.11
39157;BME280;24889;42.424;25.604;2022-07-19T03:31:36;98764.78;;;19.22;65.84
39157;BME280;24889;42.424;25.604;2022-07-19T03:34:02;98767.53;;;19.44;64.94
39157;BME280;24889;42.424;25.604;2022-07-19T03:36:27;98766.16;;;19.63;63.59
39157;BME280;24889;42.424;25.604;2022-07-19T03:38:52;98773.63;;;19.78;62.96
39157;BME280;24889;42.424;25.604;2022-07-19T03:41:18;98772.81;;;19.78;63.28
39157;BME280;24889;42.424;25.604;2022-07-19T03:43:44;98768.22;;;19.78;63.41
39157;BME280;24889;42.424;25.604;2022-07-19T03:46:09;98770.47;;;19.86;62.54
39157;BME280;24889;42.424;25.604;2022-07-19T03:48:34;98767.69;;;20.08;61.58
39157;BME280;24889;42.424;25.604;2022-07-19T03:51:00;98778.03;;;20.38;60.49
39157;BME280;24889;42.424;25.604;2022-07-19T03:53:25;98774.16;;;20.61;60.11
39157;BME280;24889;42.424;25.604;2022-07-19T03:55:50;98780.81;;;20.81;58.18
39157;BME280;24889;42.424;25.604;2022-07-19T03:58:16;98777.69;;;21.04;57.65
39157;BME280;24889;42.424;25.604;2022-07-19T04:00:41;98781.09;;;21.32;55.59
39157;BME280;24889;42.424;25.604;2022-07-19T04:03:06;98784.72;;;21.48;54.90
39157;BME280;24889;42.424;25.604;2022-07-19T04:05:32;98753.00;;;21.21;55.10
39157;BME280;24889;42.424;25.604;2022-07-19T04:07:57;98782.63;;;21.70;54.03
39157;BME280;24889;42.424;25.604;2022-07-19T04:10:22;98790.59;;;21.87;53.71
39157;BME280;24889;42.424;25.604;2022-07-19T04:12:48;98788.44;;;21.94;52.83
39157;BME280;24889;42.424;25.604;2022-07-19T04:15:13;98796.31;;;22.01;52.70
39157;BME280;24889;42.424;25.604;2022-07-19T04:17:38;98791.47;;;22.13;52.55
39157;BME280;24889;42.424;25.604;2022-07-19T04:20:04;98787.41;;;22.21;51.44
39157;BME280;24889;42.424;25.604;2022-07-19T04:22:30;98789.31;;;22.61;50.71
39157;BME280;24889;42.424;25.604;2022-07-19T04:24:55;98789.31;;;22.87;49.60
39157;BME280;24889;42.424;25.604;2022-07-19T04:27:21;98795.31;;;22.99;49.15
39157;BME280;24889;42.424;25.604;2022-07-19T04:29:46;98785.16;;;23.25;47.85
39157;BME280;24889;42.424;25.604;2022-07-19T04:32:12;98784.56;;;23.38;47.40
39157;BME280;24889;42.424;25.604;2022-07-19T04:34:37;98788.34;;;23.52;47.00
39157;BME280;24889;42.424;25.604;2022-07-19T04:37:02;98786.34;;;23.73;45.79
39157;BME280;24889;42.424;25.604;2022-07-19T04:39:28;98792.19;;;24.01;45.04
39157;BME280;24889;42.424;25.604;2022-07-19T04:41:53;98791.22;;;24.26;43.66
39157;BME280;24889;42.424;25.604;2022-07-19T04:44:18;98788.28;;;24.57;42.32
39157;BME280;24889;42.424;25.604;2022-07-19T04:46:44;98790.34;;;24.99;41.48
39157;BME280;24889;42.424;25.604;2022-07-19T04:49:09;98788.88;;;25.36;39.85
39157;BME280;24889;42.424;25.604;2022-07-19T04:51:34;98785.41;;;25.73;38.37
39157;BME280;24889;42.424;25.604;2022-07-19T04:54:00;98781.91;;;26.10;37.70
39157;BME280;24889;42.424;25.604;2022-07-19T04:56:25;98783.44;;;26.35;36.63
39157;BME280;24889;42.424;25.604;2022-07-19T04:58:50;98785.47;;;26.62;35.29
39157;BME280;24889;42.424;25.604;2022-07-19T05:01:15;98788.09;;;26.86;33.35
39157;BME280;24889;42.424;25.604;2022-07-19T05:03:41;98788.25;;;27.09;32.77
39157;BME280;24889;42.424;25.604;2022-07-19T05:06:06;98783.53;;;26.96;31.89
39157;BME280;24889;42.424;25.604;2022-07-19T05:08:32;98794.59;;;27.37;32.70
39157;BME280;24889;42.424;25.604;2022-07-19T05:10:58;98788.28;;;27.36;32.35
39157;BME280;24889;42.424;25.604;2022-07-19T05:13:23;98788.09;;;27.47;34.54
39157;BME280;24889;42.424;25.604;2022-07-19T05:15:48;98791.94;;;27.46;37.05
39157;BME280;24889;42.424;25.604;2022-07-19T05:18:14;98792.66;;;27.51;31.79
39157;BME280;24889;42.424;25.604;2022-07-19T05:20:39;98794.78;;;27.54;30.25
39157;BME280;24889;42.424;25.604;2022-07-19T05:23:04;98800.78;;;27.56;29.56
39157;BME280;24889;42.424;25.604;2022-07-19T05:25:30;98790.09;;;27.55;29.52
39157;BME280;24889;42.424;25.604;2022-07-19T05:27:55;98795.38;;;27.65;29.94
39157;BME280;24889;42.424;25.604;2022-07-19T05:30:23;98782.25;;;27.89;28.93
39157;BME280;24889;42.424;25.604;2022-07-19T05:32:48;98792.63;;;27.65;29.22
39157;BME280;24889;42.424;25.604;2022-07-19T05:35:14;98785.66;;;27.95;29.08
39157;BME280;24889;42.424;25.604;2022-07-19T05:37:39;98787.38;;;28.05;28.81
39157;BME280;24889;42.424;25.604;2022-07-19T05:40:04;98788.31;;;28.00;28.79
39157;BME280;24889;42.424;25.604;2022-07-19T05:42:30;98795.34;;;28.29;29.48
39157;BME280;24889;42.424;25.604;2022-07-19T05:44:55;98799.78;;;27.66;36.80
39157;BME280;24889;42.424;25.604;2022-07-19T05:47:21;98797.53;;;27.27;35.51
39157;BME280;24889;42.424;25.604;2022-07-19T05:49:46;98786.94;;;27.89;31.73
39157;BME280;24889;42.424;25.604;2022-07-19T05:52:11;98791.03;;;28.36;28.97
39157;BME280;24889;42.424;25.604;2022-07-19T05:54:37;98797.09;;;28.61;26.73
39157;BME280;24889;42.424;25.604;2022-07-19T05:57:02;98796.16;;;28.66;26.69
39157;BME280;24889;42.424;25.604;2022-07-19T05:59:27;98796.91;;;28.57;25.83
39157;BME280;24889;42.424;25.604;2022-07-19T06:01:53;98789.13;;;28.01;25.44
39157;BME280;24889;42.424;25.604;2022-07-19T06:04:18;98787.88;;;28.07;26.00
39157;BME280;24889;42.424;25.604;2022-07-19T06:06:44;98793.38;;;28.07;26.00
39157;BME280;24889;42.424;25.604;2022-07-19T06:09:09;98791.41;;;28.57;25.63
39157;BME280;24889;42.424;25.604;2022-07-19T06:11:37;98792.59;;;28.96;25.39
39157;BME280;24889;42.424;25.604;2022-07-19T06:14:02;98800.19;;;28.91;25.45
39157;BME280;24889;42.424;25.604;2022-07-19T06:16:28;98800.53;;;28.67;25.38
39157;BME280;24889;42.424;25.604;2022-07-19T06:18:53;98801.25;;;28.81;25.32
39157;BME280;24889;42.424;25.604;2022-07-19T06:21:19;98790.28;;;29.12;25.32
39157;BME280;24889;42.424;25.604;2022-07-19T06:23:45;98797.44;;;29.62;25.00
39157;BME280;24889;42.424;25.604;2022-07-19T06:26:11;98787.41;;;29.17;25.10
39157;BME280;24889;42.424;25.604;2022-07-19T06:28:37;98787.72;;;28.93;25.28
39157;BME280;24889;42.424;25.604;2022-07-19T06:31:02;98795.88;;;29.29;25.49
39157;BME280;24889;42.424;25.604;2022-07-19T06:33:28;98800.16;;;29.53;25.20
39157;BME280;24889;42.424;25.604;2022-07-19T06:35:53;98796.47;;;29.66;25.59
39157;BME280;24889;42.424;25.604;2022-07-19T06:38:18;98799.44;;;28.31;26.71
39157;BME280;24889;42.424;25.604;2022-07-19T06:40:44;98800.03;;;28.28;27.62
39157;BME280;24889;42.424;25.604;2022-07-19T06:43:09;98796.69;;;28.99;27.40
39157;BME280;24889;42.424;25.604;2022-07-19T06:45:34;98795.66;;;29.17;27.45
39157;BME280;24889;42.424;25.604;2022-07-19T06:48:00;98797.00;;;29.28;26.18
39157;BME280;24889;42.424;25.604;2022-07-19T06:50:25;98793.94;;;28.99;26.55
39157;BME280;24889;42.424;25.604;2022-07-19T06:52:51;98794.09;;;29.33;26.53
39157;BME280;24889;42.424;25.604;2022-07-19T06:55:16;98799.78;;;30.12;26.05
39157;BME280;24889;42.424;25.604;2022-07-19T06:57:42;98791.53;;;30.03;25.51
39157;BME280;24889;42.424;25.604;2022-07-19T07:00:08;98799.66;;;30.08;25.78
39157;BME280;24889;42.424;25.604;2022-07-19T07:02:37;98793.75;;;28.73;27.46
39157;BME280;24889;42.424;25.604;2022-07-19T07:05:04;98795.63;;;28.86;27.38
39157;BME280;24889;42.424;25.604;2022-07-19T07:07:29;98800.84;;;28.43;28.60
39157;BME280;24889;42.424;25.604;2022-07-19T07:09:54;98799.03;;;28.60;27.48
39157;BME280;24889;42.424;25.604;2022-07-19T07:12:20;98797.81;;;27.80;28.70
39157;BME280;24889;42.424;25.604;2022-07-19T07:14:45;98802.84;;;28.51;27.36
39157;BME280;24889;42.424;25.604;2022-07-19T07:17:10;98797.47;;;28.09;28.46
39157;BME280;24889;42.424;25.604;2022-07-19T07:19:36;98806.28;;;27.56;28.27
39157;BME280;24889;42.424;25.604;2022-07-19T07:22:01;98800.78;;;27.42;28.21
39157;BME280;24889;42.424;25.604;2022-07-19T07:24:27;98798.31;;;27.27;28.08
39157;BME280;24889;42.424;25.604;2022-07-19T07:26:53;98802.72;;;27.14;28.92
39157;BME280;24889;42.424;25.604;2022-07-19T07:29:18;98796.13;;;27.43;28.61
39157;BME280;24889;42.424;25.604;2022-07-19T07:31:43;98803.63;;;27.65;28.48
39157;BME280;24889;42.424;25.604;2022-07-19T07:34:09;98797.38;;;28.37;27.40
39157;BME280;24889;42.424;25.604;2022-07-19T07:36:34;98791.38;;;29.02;26.36
39157;BME280;24889;42.424;25.604;2022-07-19T07:38:59;98796.78;;;28.94;26.36
39157;BME280;24889;42.424;25.604;2022-07-19T07:41:25;98787.09;;;28.43;28.00
39157;BME280;24889;42.424;25.604;2022-07-19T07:43:50;98792.41;;;28.93;26.38
39157;BME280;24889;42.424;25.604;2022-07-19T07:46:15;98793.31;;;28.79;26.29
39157;BME280;24889;42.424;25.604;2022-07-19T07:48:41;98803.84;;;29.40;25.51
39157;BME280;24889;42.424;25.604;2022-07-19T07:51:06;98797.63;;;29.65;26.19
39157;BME280;24889;42.424;25.604;2022-07-19T07:53:31;98796.41;;;30.06;25.07
39157;BME280;24889;42.424;25.604;2022-07-19T07:55:57;98792.03;;;30.48;24.74
39157;BME280;24889;42.424;25.604;2022-07-19T07:58:22;98788.00;;;30.46;24.07
39157;BME280;24889;42.424;25.604;2022-07-19T08:00:47;98783.78;;;28.85;25.96
39157;BME280;24889;42.424;25.604;2022-07-19T08:03:13;98785.53;;;29.04;26.48
39157;BME280;24889;42.424;25.604;2022-07-19T08:05:38;98791.25;;;29.56;25.10
39157;BME280;24889;42.424;25.604;2022-07-19T08:08:04;98780.16;;;29.96;25.22
39157;BME280;24889;42.424;25.604;2022-07-19T08:10:30;98786.81;;;29.95;24.00
39157;BME280;24889;42.424;25.604;2022-07-19T08:12:58;98786.03;;;30.38;23.60
39157;BME280;24889;42.424;25.604;2022-07-19T08:15:23;98786.66;;;29.91;24.41
39157;BME280;24889;42.424;25.604;2022-07-19T08:17:49;98791.88;;;29.53;25.25
39157;BME280;24889;42.424;25.604;2022-07-19T08:20:14;98770.91;;;29.74;24.55
39157;BME280;24889;42.424;25.604;2022-07-19T08:22:40;98796.84;;;29.33;24.82
39157;BME280;24889;42.424;25.604;2022-07-19T08:25:05;98771.63;;;29.09;24.91
39157;BME280;24889;42.424;25.604;2022-07-19T08:27:31;98787.09;;;28.96;25.47
39157;BME280;24889;42.424;25.604;2022-07-19T08:29:58;98775.91;;;29.24;26.47
39157;BME280;24889;42.424;25.604;2022-07-19T08:32:23;98785.06;;;29.50;25.34
39157;BME280;24889;42.424;25.604;2022-07-19T08:34:49;98779.47;;;29.64;24.87
39157;BME280;24889;42.424;25.604;2022-07-19T08:37:14;98763.38;;;29.57;25.13
39157;BME280;24889;42.424;25.604;2022-07-19T08:39:39;98775.72;;;29.20;25.77
39157;BME280;24889;42.424;25.604;2022-07-19T08:42:04;98774.81;;;29.33;24.90
39157;BME280;24889;42.424;25.604;2022-07-19T08:44:30;98775.63;;;28.72;25.77
39157;BME280;24889;42.424;25.604;2022-07-19T08:46:57;98767.88;;;28.82;25.86
39157;BME280;24889;42.424;25.604;2022-07-19T08:49:23;98769.16;;;28.76;25.65
39157;BME280;24889;42.424;25.604;2022-07-19T08:51:49;98767.19;;;28.46;25.88
39157;BME280;24889;42.424;25.604;2022-07-19T08:54:15;98754.72;;;28.71;26.01
39157;BME280;24889;42.424;25.604;2022-07-19T08:56:40;98747.22;;;29.25;26.28
39157;BME280;24889;42.424;25.604;2022-07-19T08:59:25;98743.47;;;29.87;25.07
39157;BME280;24889;42.424;25.604;2022-07-19T09:01:50;98762.66;;;30.26;24.62
39157;BME280;24889;42.424;25.604;2022-07-19T09:04:17;98761.19;;;30.29;24.44
39157;BME280;24889;42.424;25.604;2022-07-19T09:09:15;98752.72;;;29.91;25.55
39157;BME280;24889;42.424;25.604;2022-07-19T09:11:43;98750.66;;;30.22;24.97
39157;BME280;24889;42.424;25.604;2022-07-19T09:14:14;98758.22;;;29.73;24.87
39157;BME280;24889;42.424;25.604;2022-07-19T09:16:50;98737.66;;;29.97;24.90
39157;BME280;24889;42.424;25.604;2022-07-19T09:19:15;98746.75;;;30.41;25.25
39157;BME280;24889;42.424;25.604;2022-07-19T09:24:39;98754.50;;;29.95;24.68
39157;BME280;24889;42.424;25.604;2022-07-19T09:29:34;98746.38;;;29.24;25.45
39157;BME280;24889;42.424;25.604;2022-07-19T09:32:04;98736.97;;;29.17;26.31
39157;BME280;24889;42.424;25.604;2022-07-19T09:34:31;98740.94;;;29.50;26.01
39157;BME280;24889;42.424;25.604;2022-07-19T09:37:10;98739.25;;;29.23;26.36
39157;BME280;24889;42.424;25.604;2022-07-19T09:39:36;98743.94;;;29.71;25.92
39157;BME280;24889;42.424;25.604;2022-07-19T09:42:04;98743.72;;;29.50;24.97
39157;BME280;24889;42.424;25.604;2022-07-19T09:44:29;98725.34;;;29.28;25.62
39157;BME280;24889;42.424;25.604;2022-07-19T09:46:55;98725.63;;;29.75;25.49
39157;BME280;24889;42.424;25.604;2022-07-19T09:49:20;98752.94;;;30.20;25.00
39157;BME280;24889;42.424;25.604;2022-07-19T09:51:47;98742.13;;;28.78;26.41
39157;BME280;24889;42.424;25.604;2022-07-19T09:54:14;98734.69;;;29.10;26.03
39157;BME280;24889;42.424;25.604;2022-07-19T09:56:40;98730.72;;;29.33;26.11
39157;BME280;24889;42.424;25.604;2022-07-19T09:59:07;98735.44;;;29.42;25.92
39157;BME280;24889;42.424;25.604;2022-07-19T10:01:33;98754.47;;;28.90;26.79
39157;BME280;24889;42.424;25.604;2022-07-19T10:04:02;98739.41;;;28.56;27.46
39157;BME280;24889;42.424;25.604;2022-07-19T10:06:28;98735.06;;;29.26;26.65
39157;BME280;24889;42.424;25.604;2022-07-19T10:08:53;98742.00;;;29.23;26.38
39157;BME280;24889;42.424;25.604;2022-07-19T10:11:21;98725.72;;;29.53;25.73
39157;BME280;24889;42.424;25.604;2022-07-19T10:13:50;98735.34;;;29.64;25.42
39157;BME280;24889;42.424;25.604;2022-07-19T10:16:17;98719.81;;;29.86;24.88
39157;BME280;24889;42.424;25.604;2022-07-19T10:18:50;98716.69;;;29.96;25.18
39157;BME280;24889;42.424;25.604;2022-07-19T10:21:16;98707.63;;;29.95;25.10
39157;BME280;24889;42.424;25.604;2022-07-19T10:23:49;98706.81;;;29.20;26.14
39157;BME280;24889;42.424;25.604;2022-07-19T10:26:32;98707.50;;;29.26;26.20
39157;BME280;24889;42.424;25.604;2022-07-19T10:29:14;98724.59;;;29.05;25.61
39157;BME280;24889;42.424;25.604;2022-07-19T10:31:40;98710.88;;;29.71;25.74
39157;BME280;24889;42.424;25.604;2022-07-19T10:34:06;98701.63;;;29.67;25.63
39157;BME280;24889;42.424;25.604;2022-07-19T10:39:20;98693.44;;;29.45;25.69
39157;BME280;24889;42.424;25.604;2022-07-19T10:44:31;98681.78;;;29.48;25.75
39157;BME280;24889;42.424;25.604;2022-07-19T10:46:56;98694.31;;;29.89;25.08
39157;BME280;24889;42.424;25.604;2022-07-19T10:57:37;98687.06;;;29.09;25.85
39157;BME280;24889;42.424;25.604;2022-07-19T11:00:15;98677.38;;;29.29;25.66
39157;BME280;24889;42.424;25.604;2022-07-19T11:02:41;98676.09;;;29.53;24.88
39157;BME280;24889;42.424;25.604;2022-07-19T11:05:06;98671.91;;;29.73;25.41
39157;BME280;24889;42.424;25.604;2022-07-19T11:07:32;98666.25;;;30.21;24.89
39157;BME280;24889;42.424;25.604;2022-07-19T11:09:58;98663.22;;;30.61;25.11
39157;BME280;24889;42.424;25.604;2022-07-19T11:14:49;98657.88;;;30.94;24.43
39157;BME280;24889;42.424;25.604;2022-07-19T11:17:15;98635.34;;;30.37;25.67
39157;BME280;24889;42.424;25.604;2022-07-19T11:19:58;98667.16;;;30.43;25.09
39157;BME280;24889;42.424;25.604;2022-07-19T11:22:23;98659.91;;;30.12;25.31
39157;BME280;24889;42.424;25.604;2022-07-19T11:24:49;98654.91;;;29.97;25.34
39157;BME280;24889;42.424;25.604;2022-07-19T11:27:14;98655.94;;;30.48;25.74
39157;BME280;24889;42.424;25.604;2022-07-19T11:29:56;98656.03;;;30.77;25.29
39157;BME280;24889;42.424;25.604;2022-07-19T11:32:22;98650.19;;;30.70;24.90
39157;BME280;24889;42.424;25.604;2022-07-19T11:34:57;98650.72;;;30.55;25.48
39157;BME280;24889;42.424;25.604;2022-07-19T11:37:27;98646.78;;;29.92;25.73
39157;BME280;24889;42.424;25.604;2022-07-19T11:39:53;98645.09;;;29.39;26.16
39157;BME280;24889;42.424;25.604;2022-07-19T11:44:56;98633.59;;;29.45;26.10
39157;BME280;24889;42.424;25.604;2022-07-19T11:47:22;98640.44;;;29.65;26.52
39157;BME280;24889;42.424;25.604;2022-07-19T11:49:47;98644.00;;;29.92;25.78
39157;BME280;24889;42.424;25.604;2022-07-19T11:52:12;98640.28;;;29.88;25.97
39157;BME280;24889;42.424;25.604;2022-07-19T11:54:38;98633.09;;;30.30;25.99
39157;BME280;24889;42.424;25.604;2022-07-19T11:57:03;98641.84;;;30.41;25.79
39157;BME280;24889;42.424;25.604;2022-07-19T11:59:29;98631.88;;;29.75;26.30
39157;BME280;24889;42.424;25.604;2022-07-19T12:01:54;98622.72;;;29.31;26.78
39157;BME280;24889;42.424;25.604;2022-07-19T12:04:22;98622.06;;;29.17;26.97
39157;BME280;24889;42.424;25.604;2022-07-19T12:06:48;98625.00;;;29.38;26.98
39157;BME280;24889;42.424;25.604;2022-07-19T12:09:18;98628.75;;;29.94;26.63
39157;BME280;24889;42.424;25.604;2022-07-19T12:11:50;98631.38;;;29.82;26.09
39157;BME280;24889;42.424;25.604;2022-07-19T12:14:26;98620.50;;;29.68;26.51
39157;BME280;24889;42.424;25.604;2022-07-19T12:19:36;98627.66;;;29.78;26.11
39157;BME280;24889;42.424;25.604;2022-07-19T12:22:02;98621.47;;;29.81;25.66
39157;BME280;24889;42.424;25.604;2022-07-19T12:24:27;98618.56;;;29.60;26.07
39157;BME280;24889;42.424;25.604;2022-07-19T12:27:02;98615.31;;;29.58;26.61
39157;BME280;24889;42.424;25.604;2022-07-19T12:31:57;98607.44;;;30.29;26.24
39157;BME280;24889;42.424;25.604;2022-07-19T12:34:23;98606.53;;;30.55;25.95
39157;BME280;24889;42.424;25.604;2022-07-19T12:36:49;98608.72;;;30.79;25.59
39157;BME280;24889;42.424;25.604;2022-07-19T12:42:00;98599.13;;;30.85;25.63
39157;BME280;24889;42.424;25.604;2022-07-19T12:44:25;98593.38;;;31.20;25.75
39157;BME280;24889;42.424;25.604;2022-07-19T12:46:51;98580.84;;;31.22;25.40
39157;BME280;24889;42.424;25.604;2022-07-19T12:49:17;98577.97;;;31.40;25.01
39157;BME280;24889;42.424;25.604;2022-07-19T12:51:42;98584.88;;;31.25;24.90
39157;BME280;24889;42.424;25.604;2022-07-19T12:54:12;98584.00;;;30.91;24.88
39157;BME280;24889;42.424;25.604;2022-07-19T12:56:37;98590.41;;;30.74;25.37
39157;BME280;24889;42.424;25.604;2022-07-19T12:59:03;98583.78;;;30.96;25.13
39157;BME280;24889;42.424;25.604;2022-07-19T13:01:47;98575.63;;;31.21;25.34
39157;BME280;24889;42.424;25.604;2022-07-19T13:04:12;98576.66;;;31.16;24.50
39157;BME280;24889;42.424;25.604;2022-07-19T13:06:38;98585.91;;;30.91;24.45
39157;BME280;24889;42.424;25.604;2022-07-19T13:09:03;98593.25;;;30.87;24.50
39157;BME280;24889;42.424;25.604;2022-07-19T13:11:28;98580.59;;;30.86;24.42
39157;BME280;24889;42.424;25.604;2022-07-19T13:13:54;98583.84;;;31.09;24.22
39157;BME280;24889;42.424;25.604;2022-07-19T13:16:19;98586.25;;;30.89;24.38
39157;BME280;24889;42.424;25.604;2022-07-19T13:18:47;98574.56;;;30.54;24.73
39157;BME280;24889;42.424;25.604;2022-07-19T13:21:15;98586.97;;;30.30;25.14